Big Stone Express — WCX9178 — position and weather

sailwx.info

Track history (hours):
 
Tides and Currents Weather Stations Pressure Air Temp Water Temp Dewpoint Dewpoint Depression Visibility Wind Speed Wind Dir Waves Ship Positions

Big Stone Express

Owner: DELAWARE BAY LAUNCH SERVICE, MILFORD, DE. More information available from US FCC via Universal Licensing System and Coast Guard Vessel Documentation Center.

Last reported at 2018-Feb-21 13:26 UTC. Time now 2018-Feb-22 18:24 UTC.
Position N 38°56' W 075°16'.

Length 25 m; draft 2 m.

MMSI: 36708110.

Date/timePositionNaut miles runAvg speedWind from/ knotsBaromVisibWave heightAir tempDewpointWater temp
2018-Feb-21 13:26N 38°56' W 075°16'4 1.0
2018-Feb-21 09:57N 38°58' W 075°12'6 0.2
2018-Feb-20 10:18N 38°56' W 075°19'0 0.0
2018-Feb-20 09:33N 38°56' W 075°19'0 0.0
2018-Feb-20 09:24N 38°56' W 075°19'0 0.0
2018-Feb-19 15:25N 38°56' W 075°19'0 0.0
2018-Feb-19 15:00N 38°56' W 075°19'0 0.0
2018-Feb-19 14:30N 38°56' W 075°19'0 0.0
2018-Feb-19 13:50N 38°56' W 075°19'0 0.0
2018-Feb-19 13:29N 38°56' W 075°19'0 0.0
2018-Feb-19 13:00N 38°56' W 075°19'0 0.0
2018-Feb-19 12:16N 38°56' W 075°19'0 0.0
2018-Feb-19 11:57N 38°56' W 075°19'0 0.0
2018-Feb-19 11:26N 38°56' W 075°19'0 0.0
2018-Feb-19 10:59N 38°56' W 075°19'0 0.0
2018-Feb-19 10:30N 38°56' W 075°19'0 0.0
2018-Feb-19 10:00N 38°56' W 075°19'0 0.0
2018-Feb-19 08:22N 38°56' W 075°19'0 0.0
2018-Feb-19 08:00N 38°56' W 075°19'0 0.0
2018-Feb-19 07:30N 38°56' W 075°19'0 0.0
2018-Feb-19 07:00N 38°56' W 075°19'0 0.0
2018-Feb-19 06:29N 38°56' W 075°19'  
2018-Feb-16 15:42N 38°56' W 075°19'0 0.0
2018-Feb-16 15:20N 38°56' W 075°19'0 0.0
2018-Feb-16 15:00N 38°56' W 075°19'0 0.0
2018-Feb-15 21:07N 38°56' W 075°19'0 0.0
2018-Feb-15 20:40N 38°56' W 075°19'0 0.0
2018-Feb-15 20:30N 38°56' W 075°19'0 0.0
2018-Feb-15 20:00N 38°56' W 075°19'0 0.0
2018-Feb-15 19:30N 38°56' W 075°19'0 0.0
2018-Feb-15 18:58N 38°56' W 075°19'0 0.0
2018-Feb-15 18:24N 38°56' W 075°19'0 0.0
2018-Feb-15 17:58N 38°56' W 075°19'1 0.1
2018-Feb-15 12:39N 38°56' W 075°18'1 0.2
2018-Feb-15 08:25N 38°56' W 075°19'0 0.0
2018-Feb-15 07:53N 38°56' W 075°19'0 0.0
2018-Feb-14 14:54N 38°56' W 075°19'0 0.0
2018-Feb-14 14:02N 38°56' W 075°19'0 0.2
2018-Feb-14 14:00N 38°56' W 075°19'0 0.0
2018-Feb-14 13:30N 38°56' W 075°19'0 0.0
2018-Feb-14 13:00N 38°56' W 075°19'0 0.0
2018-Feb-14 12:30N 38°56' W 075°19'0 0.0
2018-Feb-14 12:00N 38°56' W 075°19'0 0.0
2018-Feb-14 11:26N 38°56' W 075°19'0 0.0
2018-Feb-14 10:31N 38°56' W 075°19'0 0.0
2018-Feb-14 10:17N 38°56' W 075°19'0 0.0
2018-Feb-14 09:59N 38°56' W 075°19'0 0.0
2018-Feb-14 09:13N 38°56' W 075°19'  
Track history (hours):
 
Tides and Currents Weather Stations Pressure Air Temp Water Temp Dewpoint Dewpoint Depression Visibility Wind Speed Wind Dir Waves Ship Positions

Big Stone Express

Owner: DELAWARE BAY LAUNCH SERVICE, MILFORD, DE. More information available from US FCC via Universal Licensing System and Coast Guard Vessel Documentation Center.

Last reported at 2018-Feb-21 13:26 UTC. Time now 2018-Feb-22 18:24 UTC.
Position N 38°56' W 075°16'.

Length 25 m; draft 2 m.

MMSI: 36708110.

Date/timePositionNaut miles runAvg speedWind from/ knotsBaromVisibWave heightAir tempDewpointWater temp
2018-Feb-21 13:26N 38°56' W 075°16'4 1.0
2018-Feb-21 09:57N 38°58' W 075°12'6 0.2
2018-Feb-20 10:18N 38°56' W 075°19'0 0.0
2018-Feb-20 09:33N 38°56' W 075°19'0 0.0
2018-Feb-20 09:24N 38°56' W 075°19'0 0.0
2018-Feb-19 15:25N 38°56' W 075°19'0 0.0
2018-Feb-19 15:00N 38°56' W 075°19'0 0.0
2018-Feb-19 14:30N 38°56' W 075°19'0 0.0
2018-Feb-19 13:50N 38°56' W 075°19'0 0.0
2018-Feb-19 13:29N 38°56' W 075°19'0 0.0
2018-Feb-19 13:00N 38°56' W 075°19'0 0.0
2018-Feb-19 12:16N 38°56' W 075°19'0 0.0
2018-Feb-19 11:57N 38°56' W 075°19'0 0.0
2018-Feb-19 11:26N 38°56' W 075°19'0 0.0
2018-Feb-19 10:59N 38°56' W 075°19'0 0.0
2018-Feb-19 10:30N 38°56' W 075°19'0 0.0
2018-Feb-19 10:00N 38°56' W 075°19'0 0.0
2018-Feb-19 08:22N 38°56' W 075°19'0 0.0
2018-Feb-19 08:00N 38°56' W 075°19'0 0.0
2018-Feb-19 07:30N 38°56' W 075°19'0 0.0
2018-Feb-19 07:00N 38°56' W 075°19'0 0.0
2018-Feb-19 06:29N 38°56' W 075°19'  
2018-Feb-16 15:42N 38°56' W 075°19'0 0.0
2018-Feb-16 15:20N 38°56' W 075°19'0 0.0
2018-Feb-16 15:00N 38°56' W 075°19'0 0.0
2018-Feb-15 21:07N 38°56' W 075°19'0 0.0
2018-Feb-15 20:40N 38°56' W 075°19'0 0.0
2018-Feb-15 20:30N 38°56' W 075°19'0 0.0
2018-Feb-15 20:00N 38°56' W 075°19'0 0.0
2018-Feb-15 19:30N 38°56' W 075°19'0 0.0
2018-Feb-15 18:58N 38°56' W 075°19'0 0.0
2018-Feb-15 18:24N 38°56' W 075°19'0 0.0
2018-Feb-15 17:58N 38°56' W 075°19'1 0.1
2018-Feb-15 12:39N 38°56' W 075°18'1 0.2
2018-Feb-15 08:25N 38°56' W 075°19'0 0.0
2018-Feb-15 07:53N 38°56' W 075°19'0 0.0
2018-Feb-14 14:54N 38°56' W 075°19'0 0.0
2018-Feb-14 14:02N 38°56' W 075°19'0 0.2
2018-Feb-14 14:00N 38°56' W 075°19'0 0.0
2018-Feb-14 13:30N 38°56' W 075°19'0 0.0
2018-Feb-14 13:00N 38°56' W 075°19'0 0.0
2018-Feb-14 12:30N 38°56' W 075°19'0 0.0
2018-Feb-14 12:00N 38°56' W 075°19'0 0.0
2018-Feb-14 11:26N 38°56' W 075°19'0 0.0
2018-Feb-14 10:31N 38°56' W 075°19'0 0.0
2018-Feb-14 10:17N 38°56' W 075°19'0 0.0
2018-Feb-14 09:59N 38°56' W 075°19'0 0.0
2018-Feb-14 09:13N 38°56' W 075°19'  

Dump ship's entire track history